sensor_id;sensor_type;location;lat;lon;timestamp;P1;durP1;ratioP1;P2;durP2;ratioP2
51883;SDS011;37915;53.254;6.598;2023-01-24T00:01:27;16.77;;;10.50;;
51883;SDS011;37915;53.254;6.598;2023-01-24T00:03:53;15.27;;;10.68;;
51883;SDS011;37915;53.254;6.598;2023-01-24T00:06:19;21.48;;;11.65;;
51883;SDS011;37915;53.254;6.598;2023-01-24T00:08:45;19.48;;;12.07;;
51883;SDS011;37915;53.254;6.598;2023-01-24T00:11:11;19.60;;;13.07;;
51883;SDS011;37915;53.254;6.598;2023-01-24T00:13:37;18.63;;;11.65;;
51883;SDS011;37915;53.254;6.598;2023-01-24T00:16:14;21.70;;;11.75;;
51883;SDS011;37915;53.254;6.598;2023-01-24T00:18:42;21.27;;;12.50;;
51883;SDS011;37915;53.254;6.598;2023-01-24T00:21:09;18.60;;;12.55;;
51883;SDS011;37915;53.254;6.598;2023-01-24T00:24:11;21.30;;;13.48;;
51883;SDS011;37915;53.254;6.598;2023-01-24T00:26:29;21.25;;;13.02;;
51883;SDS011;37915;53.254;6.598;2023-01-24T00:28:55;21.80;;;13.00;;
51883;SDS011;37915;53.254;6.598;2023-01-24T00:31:23;24.63;;;12.70;;
51883;SDS011;37915;53.254;6.598;2023-01-24T00:33:48;21.80;;;13.52;;
51883;SDS011;37915;53.254;6.598;2023-01-24T00:36:14;20.83;;;12.93;;
51883;SDS011;37915;53.254;6.598;2023-01-24T00:38:40;23.60;;;13.65;;
51883;SDS011;37915;53.254;6.598;2023-01-24T00:41:06;24.27;;;13.85;;
51883;SDS011;37915;53.254;6.598;2023-01-24T00:43:32;25.20;;;15.25;;
51883;SDS011;37915;53.254;6.598;2023-01-24T00:45:58;22.25;;;13.38;;
51883;SDS011;37915;53.254;6.598;2023-01-24T00:48:24;28.77;;;14.23;;
51883;SDS011;37915;53.254;6.598;2023-01-24T00:50:50;22.88;;;13.00;;
51883;SDS011;37915;53.254;6.598;2023-01-24T00:53:16;27.08;;;14.10;;
51883;SDS011;37915;53.254;6.598;2023-01-24T00:55:43;26.65;;;14.70;;
51883;SDS011;37915;53.254;6.598;2023-01-24T00:58:09;24.48;;;13.48;;
51883;SDS011;37915;53.254;6.598;2023-01-24T01:00:36;28.30;;;14.88;;
51883;SDS011;37915;53.254;6.598;2023-01-24T01:03:04;24.67;;;13.85;;
51883;SDS011;37915;53.254;6.598;2023-01-24T01:05:30;26.08;;;14.52;;
51883;SDS011;37915;53.254;6.598;2023-01-24T01:07:56;22.65;;;13.65;;
51883;SDS011;37915;53.254;6.598;2023-01-24T01:10:22;24.45;;;14.57;;
51883;SDS011;37915;53.254;6.598;2023-01-24T01:12:48;23.95;;;14.40;;
51883;SDS011;37915;53.254;6.598;2023-01-24T01:15:13;27.15;;;14.82;;
51883;SDS011;37915;53.254;6.598;2023-01-24T01:17:39;23.77;;;13.73;;
51883;SDS011;37915;53.254;6.598;2023-01-24T01:20:05;21.92;;;13.35;;
51883;SDS011;37915;53.254;6.598;2023-01-24T01:22:31;24.63;;;13.75;;
51883;SDS011;37915;53.254;6.598;2023-01-24T01:24:57;27.70;;;14.30;;
51883;SDS011;37915;53.254;6.598;2023-01-24T01:27:22;23.98;;;14.35;;
51883;SDS011;37915;53.254;6.598;2023-01-24T01:29:48;25.00;;;14.18;;
51883;SDS011;37915;53.254;6.598;2023-01-24T01:32:14;23.88;;;14.50;;
51883;SDS011;37915;53.254;6.598;2023-01-24T01:34:39;26.13;;;14.07;;
51883;SDS011;37915;53.254;6.598;2023-01-24T01:37:05;22.98;;;13.82;;
51883;SDS011;37915;53.254;6.598;2023-01-24T01:39:31;22.50;;;14.40;;
51883;SDS011;37915;53.254;6.598;2023-01-24T01:41:56;26.15;;;14.68;;
51883;SDS011;37915;53.254;6.598;2023-01-24T01:44:23;23.38;;;13.65;;
51883;SDS011;37915;53.254;6.598;2023-01-24T01:47:17;24.13;;;13.43;;
51883;SDS011;37915;53.254;6.598;2023-01-24T01:49:45;26.00;;;14.57;;
51883;SDS011;37915;53.254;6.598;2023-01-24T01:52:16;25.67;;;15.57;;
51883;SDS011;37915;53.254;6.598;2023-01-24T01:54:43;27.60;;;14.65;;
51883;SDS011;37915;53.254;6.598;2023-01-24T01:57:21;25.65;;;14.55;;
51883;SDS011;37915;53.254;6.598;2023-01-24T01:59:54;30.05;;;15.32;;
51883;SDS011;37915;53.254;6.598;2023-01-24T02:02:24;26.55;;;16.60;;
51883;SDS011;37915;53.254;6.598;2023-01-24T02:04:52;25.13;;;14.95;;
51883;SDS011;37915;53.254;6.598;2023-01-24T02:07:24;27.75;;;15.48;;
51883;SDS011;37915;53.254;6.598;2023-01-24T02:10:07;26.15;;;15.80;;
51883;SDS011;37915;53.254;6.598;2023-01-24T02:12:38;25.92;;;15.95;;
51883;SDS011;37915;53.254;6.598;2023-01-24T02:15:07;25.13;;;15.32;;
51883;SDS011;37915;53.254;6.598;2023-01-24T02:17:54;29.52;;;15.77;;
51883;SDS011;37915;53.254;6.598;2023-01-24T02:28:15;27.15;;;15.05;;
51883;SDS011;37915;53.254;6.598;2023-01-24T02:30:41;28.15;;;17.02;;
51883;SDS011;37915;53.254;6.598;2023-01-24T02:33:17;28.05;;;16.17;;
51883;SDS011;37915;53.254;6.598;2023-01-24T02:35:45;30.13;;;15.68;;
51883;SDS011;37915;53.254;6.598;2023-01-24T02:38:18;33.17;;;15.52;;
51883;SDS011;37915;53.254;6.598;2023-01-24T02:40:48;27.55;;;15.80;;
51883;SDS011;37915;53.254;6.598;2023-01-24T02:43:16;30.17;;;15.65;;
51883;SDS011;37915;53.254;6.598;2023-01-24T02:45:44;24.52;;;15.75;;
51883;SDS011;37915;53.254;6.598;2023-01-24T02:48:10;35.10;;;16.02;;
51883;SDS011;37915;53.254;6.598;2023-01-24T02:50:36;27.77;;;15.65;;
51883;SDS011;37915;53.254;6.598;2023-01-24T02:53:20;28.85;;;15.50;;
51883;SDS011;37915;53.254;6.598;2023-01-24T02:55:56;27.77;;;15.48;;
51883;SDS011;37915;53.254;6.598;2023-01-24T02:58:45;26.88;;;14.32;;
51883;SDS011;37915;53.254;6.598;2023-01-24T03:01:11;24.83;;;15.45;;
51883;SDS011;37915;53.254;6.598;2023-01-24T03:03:37;27.63;;;15.18;;
51883;SDS011;37915;53.254;6.598;2023-01-24T03:06:03;28.40;;;15.88;;
51883;SDS011;37915;53.254;6.598;2023-01-24T03:08:30;26.38;;;16.08;;
51883;SDS011;37915;53.254;6.598;2023-01-24T03:10:57;29.58;;;15.95;;
51883;SDS011;37915;53.254;6.598;2023-01-24T03:13:23;27.42;;;15.93;;
51883;SDS011;37915;53.254;6.598;2023-01-24T03:16:08;27.17;;;15.80;;
51883;SDS011;37915;53.254;6.598;2023-01-24T03:18:53;26.33;;;14.70;;
51883;SDS011;37915;53.254;6.598;2023-01-24T03:21:37;26.00;;;15.35;;
51883;SDS011;37915;53.254;6.598;2023-01-24T03:24:22;29.13;;;16.25;;
51883;SDS011;37915;53.254;6.598;2023-01-24T03:27:06;24.58;;;14.10;;
51883;SDS011;37915;53.254;6.598;2023-01-24T03:29:51;26.10;;;14.13;;
51883;SDS011;37915;53.254;6.598;2023-01-24T03:32:35;23.17;;;13.98;;
51883;SDS011;37915;53.254;6.598;2023-01-24T03:35:20;22.10;;;13.52;;
51883;SDS011;37915;53.254;6.598;2023-01-24T03:37:46;22.80;;;13.10;;
51883;SDS011;37915;53.254;6.598;2023-01-24T03:40:30;29.55;;;14.70;;
51883;SDS011;37915;53.254;6.598;2023-01-24T03:42:56;26.55;;;13.90;;
51883;SDS011;37915;53.254;6.598;2023-01-24T03:45:24;26.98;;;14.63;;
51883;SDS011;37915;53.254;6.598;2023-01-24T03:48:02;25.35;;;14.63;;
51883;SDS011;37915;53.254;6.598;2023-01-24T03:50:36;28.27;;;14.63;;
51883;SDS011;37915;53.254;6.598;2023-01-24T03:53:22;27.17;;;15.95;;
51883;SDS011;37915;53.254;6.598;2023-01-24T03:55:53;25.83;;;14.80;;
51883;SDS011;37915;53.254;6.598;2023-01-24T03:58:20;24.77;;;14.35;;
51883;SDS011;37915;53.254;6.598;2023-01-24T04:00:47;24.23;;;14.88;;
51883;SDS011;37915;53.254;6.598;2023-01-24T04:03:12;26.13;;;14.57;;
51883;SDS011;37915;53.254;6.598;2023-01-24T04:05:38;25.27;;;15.15;;
51883;SDS011;37915;53.254;6.598;2023-01-24T04:08:04;25.20;;;14.65;;
51883;SDS011;37915;53.254;6.598;2023-01-24T04:10:30;28.73;;;15.63;;
51883;SDS011;37915;53.254;6.598;2023-01-24T04:12:57;25.77;;;14.43;;
51883;SDS011;37915;53.254;6.598;2023-01-24T04:15:24;24.90;;;14.73;;
51883;SDS011;37915;53.254;6.598;2023-01-24T04:17:59;25.05;;;14.80;;
51883;SDS011;37915;53.254;6.598;2023-01-24T04:20:27;26.67;;;14.63;;
51883;SDS011;37915;53.254;6.598;2023-01-24T04:22:55;28.23;;;14.18;;
51883;SDS011;37915;53.254;6.598;2023-01-24T04:25:21;22.95;;;13.35;;
51883;SDS011;37915;53.254;6.598;2023-01-24T04:27:47;24.98;;;14.07;;
51883;SDS011;37915;53.254;6.598;2023-01-24T04:30:14;23.50;;;13.93;;
51883;SDS011;37915;53.254;6.598;2023-01-24T04:32:41;22.00;;;13.55;;
51883;SDS011;37915;53.254;6.598;2023-01-24T04:35:07;24.25;;;14.43;;
51883;SDS011;37915;53.254;6.598;2023-01-24T04:37:34;20.52;;;12.88;;
51883;SDS011;37915;53.254;6.598;2023-01-24T04:39:59;25.23;;;13.63;;
51883;SDS011;37915;53.254;6.598;2023-01-24T04:42:28;19.92;;;12.57;;
51883;SDS011;37915;53.254;6.598;2023-01-24T04:44:53;19.13;;;11.80;;
51883;SDS011;37915;53.254;6.598;2023-01-24T04:47:19;22.98;;;12.52;;
51883;SDS011;37915;53.254;6.598;2023-01-24T04:49:45;21.55;;;12.85;;
51883;SDS011;37915;53.254;6.598;2023-01-24T04:52:11;21.10;;;12.63;;
51883;SDS011;37915;53.254;6.598;2023-01-24T04:54:38;20.52;;;12.48;;
51883;SDS011;37915;53.254;6.598;2023-01-24T04:57:04;19.25;;;12.15;;
51883;SDS011;37915;53.254;6.598;2023-01-24T04:59:30;18.80;;;11.43;;
51883;SDS011;37915;53.254;6.598;2023-01-24T05:01:56;18.40;;;11.77;;
51883;SDS011;37915;53.254;6.598;2023-01-24T05:04:22;18.58;;;11.90;;
51883;SDS011;37915;53.254;6.598;2023-01-24T05:06:47;17.63;;;10.70;;
51883;SDS011;37915;53.254;6.598;2023-01-24T05:09:13;19.25;;;11.65;;
51883;SDS011;37915;53.254;6.598;2023-01-24T05:11:38;17.88;;;11.23;;
51883;SDS011;37915;53.254;6.598;2023-01-24T05:14:04;25.30;;;11.25;;
51883;SDS011;37915;53.254;6.598;2023-01-24T05:16:30;20.45;;;11.40;;
51883;SDS011;37915;53.254;6.598;2023-01-24T05:18:56;21.20;;;12.43;;
51883;SDS011;37915;53.254;6.598;2023-01-24T05:21:21;19.73;;;12.55;;
51883;SDS011;37915;53.254;6.598;2023-01-24T05:23:48;18.15;;;11.32;;
51883;SDS011;37915;53.254;6.598;2023-01-24T05:26:15;23.67;;;11.50;;
51883;SDS011;37915;53.254;6.598;2023-01-24T05:28:41;21.30;;;12.05;;
51883;SDS011;37915;53.254;6.598;2023-01-24T05:31:07;16.80;;;11.23;;
51883;SDS011;37915;53.254;6.598;2023-01-24T05:33:33;17.77;;;11.73;;
51883;SDS011;37915;53.254;6.598;2023-01-24T05:36:10;17.70;;;11.38;;
51883;SDS011;37915;53.254;6.598;2023-01-24T05:38:37;20.65;;;11.65;;
51883;SDS011;37915;53.254;6.598;2023-01-24T05:41:04;21.85;;;11.45;;
51883;SDS011;37915;53.254;6.598;2023-01-24T05:43:32;20.95;;;12.25;;
51883;SDS011;37915;53.254;6.598;2023-01-24T05:46:02;19.60;;;11.30;;
51883;SDS011;37915;53.254;6.598;2023-01-24T05:48:29;20.00;;;11.73;;
51883;SDS011;37915;53.254;6.598;2023-01-24T05:50:56;20.35;;;12.32;;
51883;SDS011;37915;53.254;6.598;2023-01-24T05:53:23;19.67;;;11.38;;
51883;SDS011;37915;53.254;6.598;2023-01-24T05:55:53;19.88;;;11.88;;
51883;SDS011;37915;53.254;6.598;2023-01-24T05:58:23;18.27;;;11.38;;
51883;SDS011;37915;53.254;6.598;2023-01-24T06:00:50;19.02;;;12.18;;
51883;SDS011;37915;53.254;6.598;2023-01-24T06:03:16;19.25;;;11.10;;
51883;SDS011;37915;53.254;6.598;2023-01-24T06:05:49;21.05;;;12.82;;
51883;SDS011;37915;53.254;6.598;2023-01-24T06:08:16;20.35;;;12.25;;
51883;SDS011;37915;53.254;6.598;2023-01-24T06:10:43;21.50;;;13.30;;
51883;SDS011;37915;53.254;6.598;2023-01-24T06:13:09;18.38;;;11.95;;
51883;SDS011;37915;53.254;6.598;2023-01-24T06:15:35;21.25;;;12.68;;
51883;SDS011;37915;53.254;6.598;2023-01-24T06:18:01;26.88;;;13.85;;
51883;SDS011;37915;53.254;6.598;2023-01-24T06:20:28;22.02;;;12.57;;
51883;SDS011;37915;53.254;6.598;2023-01-24T06:22:55;21.42;;;11.93;;
51883;SDS011;37915;53.254;6.598;2023-01-24T06:25:30;25.45;;;12.55;;
51883;SDS011;37915;53.254;6.598;2023-01-24T06:27:55;20.48;;;12.27;;
51883;SDS011;37915;53.254;6.598;2023-01-24T06:30:21;19.52;;;11.70;;
51883;SDS011;37915;53.254;6.598;2023-01-24T06:38:27;27.13;;;13.38;;
51883;SDS011;37915;53.254;6.598;2023-01-24T06:40:57;22.30;;;13.05;;
51883;SDS011;37915;53.254;6.598;2023-01-24T06:43:25;23.02;;;13.50;;
51883;SDS011;37915;53.254;6.598;2023-01-24T06:45:51;25.95;;;13.05;;
51883;SDS011;37915;53.254;6.598;2023-01-24T06:48:17;28.40;;;14.57;;
51883;SDS011;37915;53.254;6.598;2023-01-24T06:50:44;25.15;;;14.60;;
51883;SDS011;37915;53.254;6.598;2023-01-24T06:53:10;24.75;;;14.02;;
51883;SDS011;37915;53.254;6.598;2023-01-24T06:55:37;24.55;;;13.52;;
51883;SDS011;37915;53.254;6.598;2023-01-24T06:58:03;22.15;;;12.90;;
51883;SDS011;37915;53.254;6.598;2023-01-24T07:00:29;22.80;;;13.30;;
51883;SDS011;37915;53.254;6.598;2023-01-24T07:03:02;22.42;;;13.73;;
51883;SDS011;37915;53.254;6.598;2023-01-24T07:05:31;24.35;;;13.95;;
51883;SDS011;37915;53.254;6.598;2023-01-24T07:07:58;21.80;;;12.38;;
51883;SDS011;37915;53.254;6.598;2023-01-24T07:10:24;22.13;;;12.85;;
51883;SDS011;37915;53.254;6.598;2023-01-24T07:12:50;22.80;;;13.35;;
51883;SDS011;37915;53.254;6.598;2023-01-24T07:15:16;19.88;;;12.48;;
51883;SDS011;37915;53.254;6.598;2023-01-24T07:17:43;23.67;;;12.63;;
51883;SDS011;37915;53.254;6.598;2023-01-24T07:20:09;22.13;;;13.13;;
51883;SDS011;37915;53.254;6.598;2023-01-24T07:22:37;18.23;;;11.80;;
51883;SDS011;37915;53.254;6.598;2023-01-24T07:25:03;23.42;;;12.95;;
51883;SDS011;37915;53.254;6.598;2023-01-24T07:27:30;22.40;;;12.32;;
51883;SDS011;37915;53.254;6.598;2023-01-24T07:29:56;19.25;;;11.60;;
51883;SDS011;37915;53.254;6.598;2023-01-24T07:32:22;19.65;;;12.25;;
51883;SDS011;37915;53.254;6.598;2023-01-24T07:34:47;17.77;;;11.35;;
51883;SDS011;37915;53.254;6.598;2023-01-24T07:37:13;18.33;;;11.27;;
51883;SDS011;37915;53.254;6.598;2023-01-24T07:39:39;21.38;;;11.40;;
51883;SDS011;37915;53.254;6.598;2023-01-24T07:42:05;17.85;;;11.00;;
51883;SDS011;37915;53.254;6.598;2023-01-24T07:44:30;17.20;;;10.70;;
51883;SDS011;37915;53.254;6.598;2023-01-24T07:46:56;19.75;;;10.75;;
51883;SDS011;37915;53.254;6.598;2023-01-24T07:49:22;20.65;;;10.63;;
51883;SDS011;37915;53.254;6.598;2023-01-24T07:51:47;17.83;;;10.40;;
51883;SDS011;37915;53.254;6.598;2023-01-24T07:54:13;20.17;;;9.80;;
51883;SDS011;37915;53.254;6.598;2023-01-24T07:56:39;18.50;;;10.95;;
51883;SDS011;37915;53.254;6.598;2023-01-24T07:59:05;15.93;;;10.10;;
51883;SDS011;37915;53.254;6.598;2023-01-24T08:01:31;17.50;;;9.27;;
51883;SDS011;37915;53.254;6.598;2023-01-24T08:03:57;19.60;;;11.23;;
51883;SDS011;37915;53.254;6.598;2023-01-24T08:06:24;16.92;;;10.05;;
51883;SDS011;37915;53.254;6.598;2023-01-24T08:08:50;17.75;;;10.70;;
51883;SDS011;37915;53.254;6.598;2023-01-24T08:11:15;18.08;;;9.68;;
51883;SDS011;37915;53.254;6.598;2023-01-24T08:13:45;16.63;;;9.68;;
51883;SDS011;37915;53.254;6.598;2023-01-24T08:16:11;14.60;;;9.90;;
51883;SDS011;37915;53.254;6.598;2023-01-24T08:18:37;17.55;;;10.38;;
51883;SDS011;37915;53.254;6.598;2023-01-24T08:21:03;12.90;;;8.55;;
51883;SDS011;37915;53.254;6.598;2023-01-24T08:23:30;17.88;;;9.98;;
51883;SDS011;37915;53.254;6.598;2023-01-24T08:25:59;17.88;;;9.70;;
51883;SDS011;37915;53.254;6.598;2023-01-24T08:28:25;14.80;;;9.32;;
51883;SDS011;37915;53.254;6.598;2023-01-24T08:30:51;14.63;;;8.75;;
51883;SDS011;37915;53.254;6.598;2023-01-24T08:33:17;15.95;;;9.98;;
51883;SDS011;37915;53.254;6.598;2023-01-24T08:35:44;15.80;;;9.65;;
51883;SDS011;37915;53.254;6.598;2023-01-24T08:38:11;15.80;;;9.88;;
51883;SDS011;37915;53.254;6.598;2023-01-24T08:40:38;16.20;;;9.73;;
51883;SDS011;37915;53.254;6.598;2023-01-24T08:43:03;15.93;;;9.15;;
51883;SDS011;37915;53.254;6.598;2023-01-24T08:45:29;14.68;;;8.85;;
51883;SDS011;37915;53.254;6.598;2023-01-24T08:47:55;17.58;;;10.25;;
51883;SDS011;37915;53.254;6.598;2023-01-24T08:50:21;16.02;;;9.48;;
51883;SDS011;37915;53.254;6.598;2023-01-24T08:52:47;13.70;;;8.65;;
51883;SDS011;37915;53.254;6.598;2023-01-24T08:55:13;16.73;;;10.10;;
51883;SDS011;37915;53.254;6.598;2023-01-24T08:57:40;16.58;;;9.15;;
51883;SDS011;37915;53.254;6.598;2023-01-24T09:00:06;15.93;;;9.52;;
51883;SDS011;37915;53.254;6.598;2023-01-24T09:02:32;16.52;;;10.13;;
51883;SDS011;37915;53.254;6.598;2023-01-24T09:05:02;15.80;;;8.85;;
51883;SDS011;37915;53.254;6.598;2023-01-24T09:07:32;15.73;;;9.70;;
51883;SDS011;37915;53.254;6.598;2023-01-24T09:10:01;16.60;;;9.32;;
51883;SDS011;37915;53.254;6.598;2023-01-24T09:12:27;14.57;;;9.32;;
51883;SDS011;37915;53.254;6.598;2023-01-24T09:14:53;15.40;;;9.25;;
51883;SDS011;37915;53.254;6.598;2023-01-24T09:17:19;16.10;;;8.85;;
51883;SDS011;37915;53.254;6.598;2023-01-24T09:19:44;15.23;;;8.65;;
51883;SDS011;37915;53.254;6.598;2023-01-24T09:22:11;17.40;;;8.82;;
51883;SDS011;37915;53.254;6.598;2023-01-24T09:24:37;16.20;;;9.48;;
51883;SDS011;37915;53.254;6.598;2023-01-24T09:27:02;13.35;;;8.32;;
51883;SDS011;37915;53.254;6.598;2023-01-24T09:29:28;16.05;;;8.75;;
51883;SDS011;37915;53.254;6.598;2023-01-24T09:31:54;14.75;;;8.38;;
51883;SDS011;37915;53.254;6.598;2023-01-24T09:34:20;13.15;;;8.48;;
51883;SDS011;37915;53.254;6.598;2023-01-24T09:36:49;14.52;;;8.50;;
51883;SDS011;37915;53.254;6.598;2023-01-24T09:39:15;14.07;;;8.30;;
51883;SDS011;37915;53.254;6.598;2023-01-24T09:46:56;13.90;;;8.32;;
51883;SDS011;37915;53.254;6.598;2023-01-24T09:49:38;14.80;;;8.70;;
51883;SDS011;37915;53.254;6.598;2023-01-24T09:52:14;15.98;;;8.63;;
51883;SDS011;37915;53.254;6.598;2023-01-24T09:54:52;15.40;;;9.40;;
51883;SDS011;37915;53.254;6.598;2023-01-24T09:57:27;15.60;;;7.65;;
51883;SDS011;37915;53.254;6.598;2023-01-24T10:00:00;14.38;;;7.97;;
51883;SDS011;37915;53.254;6.598;2023-01-24T10:02:34;15.05;;;8.95;;
51883;SDS011;37915;53.254;6.598;2023-01-24T10:05:00;14.93;;;7.97;;
51883;SDS011;37915;53.254;6.598;2023-01-24T10:15:53;14.57;;;8.18;;
51883;SDS011;37915;53.254;6.598;2023-01-24T10:21:16;13.77;;;7.97;;
51883;SDS011;37915;53.254;6.598;2023-01-24T10:23:56;11.95;;;7.22;;
51883;SDS011;37915;53.254;6.598;2023-01-24T10:26:42;14.38;;;8.02;;
51883;SDS011;37915;53.254;6.598;2023-01-24T10:32:14;12.18;;;7.50;;
51883;SDS011;37915;53.254;6.598;2023-01-24T10:34:56;12.95;;;7.32;;
51883;SDS011;37915;53.254;6.598;2023-01-24T10:37:24;13.73;;;7.45;;
51883;SDS011;37915;53.254;6.598;2023-01-24T10:40:09;11.98;;;7.38;;
51883;SDS011;37915;53.254;6.598;2023-01-24T10:42:39;12.68;;;8.00;;
51883;SDS011;37915;53.254;6.598;2023-01-24T10:50:52;13.25;;;7.53;;
51883;SDS011;37915;53.254;6.598;2023-01-24T10:53:24;13.00;;;7.32;;
51883;SDS011;37915;53.254;6.598;2023-01-24T10:56:04;16.13;;;8.57;;
51883;SDS011;37915;53.254;6.598;2023-01-24T10:58:39;13.48;;;7.55;;
51883;SDS011;37915;53.254;6.598;2023-01-24T11:01:23;13.95;;;8.18;;
51883;SDS011;37915;53.254;6.598;2023-01-24T11:03:58;14.30;;;8.27;;
51883;SDS011;37915;53.254;6.598;2023-01-24T11:09:16;13.93;;;8.27;;
51883;SDS011;37915;53.254;6.598;2023-01-24T11:11:52;13.48;;;7.28;;
51883;SDS011;37915;53.254;6.598;2023-01-24T11:14:20;12.40;;;8.05;;
51883;SDS011;37915;53.254;6.598;2023-01-24T11:16:49;13.15;;;7.63;;
51883;SDS011;37915;53.254;6.598;2023-01-24T11:19:21;18.15;;;8.23;;
51883;SDS011;37915;53.254;6.598;2023-01-24T11:21:54;14.23;;;8.50;;
51883;SDS011;37915;53.254;6.598;2023-01-24T11:24:22;15.30;;;8.50;;
51883;SDS011;37915;53.254;6.598;2023-01-24T11:29:20;14.35;;;8.43;;
51883;SDS011;37915;53.254;6.598;2023-01-24T11:37:51;13.93;;;9.00;;
51883;SDS011;37915;53.254;6.598;2023-01-24T11:40:44;15.65;;;8.25;;
51883;SDS011;37915;53.254;6.598;2023-01-24T11:46:13;12.52;;;7.80;;
51883;SDS011;37915;53.254;6.598;2023-01-24T11:51:31;13.43;;;7.93;;
51883;SDS011;37915;53.254;6.598;2023-01-24T12:02:30;14.45;;;8.05;;
51883;SDS011;37915;53.254;6.598;2023-01-24T12:05:12;14.30;;;8.80;;
51883;SDS011;37915;53.254;6.598;2023-01-24T12:13:32;14.65;;;7.93;;
51883;SDS011;37915;53.254;6.598;2023-01-24T12:21:13;14.45;;;8.35;;
51883;SDS011;37915;53.254;6.598;2023-01-24T12:23:47;16.45;;;8.73;;
51883;SDS011;37915;53.254;6.598;2023-01-24T12:26:17;16.83;;;9.23;;
51883;SDS011;37915;53.254;6.598;2023-01-24T12:36:59;16.17;;;10.27;;
51883;SDS011;37915;53.254;6.598;2023-01-24T12:39:37;15.45;;;9.48;;
51883;SDS011;37915;53.254;6.598;2023-01-24T12:42:18;14.85;;;9.65;;
51883;SDS011;37915;53.254;6.598;2023-01-24T12:44:50;16.63;;;9.77;;
51883;SDS011;37915;53.254;6.598;2023-01-24T12:47:38;15.82;;;10.57;;
51883;SDS011;37915;53.254;6.598;2023-01-24T12:50:39;16.35;;;10.50;;
51883;SDS011;37915;53.254;6.598;2023-01-24T12:53:17;18.27;;;10.40;;
51883;SDS011;37915;53.254;6.598;2023-01-24T12:56:19;16.33;;;10.20;;
51883;SDS011;37915;53.254;6.598;2023-01-24T12:58:48;16.30;;;10.13;;
51883;SDS011;37915;53.254;6.598;2023-01-24T13:11:44;17.73;;;10.50;;
51883;SDS011;37915;53.254;6.598;2023-01-24T13:14:23;17.60;;;10.88;;
51883;SDS011;37915;53.254;6.598;2023-01-24T13:17:28;22.15;;;12.73;;
51883;SDS011;37915;53.254;6.598;2023-01-24T13:23:03;17.30;;;11.15;;
51883;SDS011;37915;53.254;6.598;2023-01-24T13:30:47;19.02;;;11.50;;
51883;SDS011;37915;53.254;6.598;2023-01-24T13:33:32;19.27;;;11.95;;
51883;SDS011;37915;53.254;6.598;2023-01-24T13:36:12;18.23;;;11.43;;
51883;SDS011;37915;53.254;6.598;2023-01-24T13:38:46;17.95;;;10.50;;
51883;SDS011;37915;53.254;6.598;2023-01-24T13:41:32;17.92;;;10.68;;
51883;SDS011;37915;53.254;6.598;2023-01-24T13:52:01;18.38;;;10.95;;
51883;SDS011;37915;53.254;6.598;2023-01-24T13:54:36;18.70;;;10.75;;
51883;SDS011;37915;53.254;6.598;2023-01-24T14:08:02;17.80;;;11.02;;
51883;SDS011;37915;53.254;6.598;2023-01-24T14:10:50;17.02;;;10.20;;
51883;SDS011;37915;53.254;6.598;2023-01-24T14:16:10;19.08;;;12.10;;
51883;SDS011;37915;53.254;6.598;2023-01-24T14:21:19;17.95;;;10.77;;
51883;SDS011;37915;53.254;6.598;2023-01-24T14:23:53;17.75;;;10.68;;
51883;SDS011;37915;53.254;6.598;2023-01-24T14:26:22;18.73;;;10.60;;
51883;SDS011;37915;53.254;6.598;2023-01-24T14:28:55;16.48;;;10.60;;
51883;SDS011;37915;53.254;6.598;2023-01-24T14:31:26;18.48;;;11.40;;
51883;SDS011;37915;53.254;6.598;2023-01-24T14:36:42;17.50;;;11.00;;
51883;SDS011;37915;53.254;6.598;2023-01-24T14:41:48;20.80;;;12.30;;
51883;SDS011;37915;53.254;6.598;2023-01-24T14:44:30;17.92;;;11.05;;
51883;SDS011;37915;53.254;6.598;2023-01-24T14:49:30;18.80;;;11.13;;
51883;SDS011;37915;53.254;6.598;2023-01-24T14:52:00;20.38;;;11.27;;
51883;SDS011;37915;53.254;6.598;2023-01-24T14:54:42;21.05;;;12.50;;
51883;SDS011;37915;53.254;6.598;2023-01-24T14:57:44;21.35;;;12.13;;
51883;SDS011;37915;53.254;6.598;2023-01-24T15:02:32;21.98;;;11.77;;
51883;SDS011;37915;53.254;6.598;2023-01-24T15:04:58;22.35;;;12.55;;
51883;SDS011;37915;53.254;6.598;2023-01-24T15:07:24;20.55;;;12.30;;
51883;SDS011;37915;53.254;6.598;2023-01-24T15:09:51;21.15;;;12.25;;
51883;SDS011;37915;53.254;6.598;2023-01-24T15:14:42;21.67;;;12.80;;
51883;SDS011;37915;53.254;6.598;2023-01-24T15:17:16;22.10;;;11.55;;
51883;SDS011;37915;53.254;6.598;2023-01-24T15:19:47;19.92;;;12.38;;
51883;SDS011;37915;53.254;6.598;2023-01-24T15:22:19;21.73;;;12.15;;
51883;SDS011;37915;53.254;6.598;2023-01-24T15:24:49;22.98;;;11.82;;
51883;SDS011;37915;53.254;6.598;2023-01-24T15:35:16;24.23;;;11.95;;
51883;SDS011;37915;53.254;6.598;2023-01-24T15:40:50;20.73;;;11.63;;
51883;SDS011;37915;53.254;6.598;2023-01-24T15:43:35;21.33;;;12.32;;
51883;SDS011;37915;53.254;6.598;2023-01-24T15:49:19;21.88;;;12.43;;
51883;SDS011;37915;53.254;6.598;2023-01-24T15:51:45;22.50;;;12.18;;
51883;SDS011;37915;53.254;6.598;2023-01-24T15:54:50;18.35;;;11.65;;
51883;SDS011;37915;53.254;6.598;2023-01-24T15:57:29;20.67;;;12.88;;
51883;SDS011;37915;53.254;6.598;2023-01-24T16:02:35;22.08;;;12.18;;
51883;SDS011;37915;53.254;6.598;2023-01-24T16:05:04;17.45;;;10.90;;
51883;SDS011;37915;53.254;6.598;2023-01-24T16:07:40;21.67;;;11.95;;
51883;SDS011;37915;53.254;6.598;2023-01-24T16:10:06;18.95;;;11.02;;
51883;SDS011;37915;53.254;6.598;2023-01-24T16:12:34;19.65;;;11.27;;
51883;SDS011;37915;53.254;6.598;2023-01-24T16:14:59;20.77;;;12.35;;
51883;SDS011;37915;53.254;6.598;2023-01-24T16:17:26;20.98;;;12.07;;
51883;SDS011;37915;53.254;6.598;2023-01-24T16:19:52;20.42;;;12.00;;
51883;SDS011;37915;53.254;6.598;2023-01-24T16:22:17;22.23;;;12.90;;
51883;SDS011;37915;53.254;6.598;2023-01-24T16:24:43;21.45;;;12.93;;
51883;SDS011;37915;53.254;6.598;2023-01-24T16:27:12;18.42;;;12.65;;
51883;SDS011;37915;53.254;6.598;2023-01-24T16:29:39;19.48;;;12.05;;
51883;SDS011;37915;53.254;6.598;2023-01-24T16:32:18;23.50;;;14.48;;
51883;SDS011;37915;53.254;6.598;2023-01-24T16:34:45;19.67;;;11.63;;
51883;SDS011;37915;53.254;6.598;2023-01-24T16:37:11;21.75;;;12.23;;
51883;SDS011;37915;53.254;6.598;2023-01-24T16:39:37;23.38;;;13.98;;
51883;SDS011;37915;53.254;6.598;2023-01-24T16:42:02;21.73;;;13.52;;
51883;SDS011;37915;53.254;6.598;2023-01-24T16:44:28;21.10;;;13.45;;
51883;SDS011;37915;53.254;6.598;2023-01-24T16:46:54;26.00;;;15.75;;
51883;SDS011;37915;53.254;6.598;2023-01-24T16:49:20;22.20;;;13.38;;
51883;SDS011;37915;53.254;6.598;2023-01-24T16:51:45;21.17;;;13.43;;
51883;SDS011;37915;53.254;6.598;2023-01-24T16:54:11;22.40;;;13.82;;
51883;SDS011;37915;53.254;6.598;2023-01-24T16:56:38;26.17;;;15.75;;
51883;SDS011;37915;53.254;6.598;2023-01-24T16:59:04;23.63;;;14.60;;
51883;SDS011;37915;53.254;6.598;2023-01-24T17:01:30;23.30;;;14.57;;
51883;SDS011;37915;53.254;6.598;2023-01-24T17:03:55;21.35;;;13.20;;
51883;SDS011;37915;53.254;6.598;2023-01-24T17:06:21;23.45;;;13.95;;
51883;SDS011;37915;53.254;6.598;2023-01-24T17:08:50;21.33;;;12.65;;
51883;SDS011;37915;53.254;6.598;2023-01-24T17:11:16;23.65;;;13.45;;
51883;SDS011;37915;53.254;6.598;2023-01-24T17:13:44;18.92;;;12.43;;
51883;SDS011;37915;53.254;6.598;2023-01-24T17:16:12;19.25;;;12.35;;